createdAt,value
2019-04-26T00:01:03.519Z,3.35
2019-04-26T00:02:28.530Z,3.15
2019-04-26T00:03:36.782Z,2.98
2019-04-26T00:04:40.416Z,3.20
2019-04-26T00:05:44.015Z,3.20
2019-04-26T00:06:48.126Z,3.12
2019-04-26T00:07:51.719Z,3.22
2019-04-26T00:09:17.881Z,2.80
2019-04-26T00:10:43.696Z,2.85
2019-04-26T00:12:01.587Z,2.70
2019-04-26T00:13:12.438Z,3.05
2019-04-26T00:14:33.318Z,2.52
2019-04-26T00:16:07.734Z,3.00
2019-04-26T00:17:20.712Z,2.58
2019-04-26T00:18:24.719Z,2.67
2019-04-26T00:19:28.678Z,3.02
2019-04-26T00:20:32.705Z,2.87
2019-04-26T00:21:36.522Z,2.72
2019-04-26T00:22:40.266Z,2.90
2019-04-26T00:23:43.835Z,2.98
2019-04-26T00:24:47.478Z,2.83
2019-04-26T00:25:50.730Z,2.77
2019-04-26T00:26:54.578Z,2.77
2019-04-26T00:27:57.857Z,2.80
2019-04-26T00:29:01.411Z,2.70
2019-04-26T00:30:04.868Z,2.70
2019-04-26T00:31:08.233Z,2.52
2019-04-26T00:32:12.157Z,2.58
2019-04-26T00:33:17.262Z,2.67
2019-04-26T00:34:21.716Z,2.60
2019-04-26T00:35:25.474Z,3.12
2019-04-26T00:36:29.210Z,2.67
2019-04-26T00:37:32.760Z,2.70
2019-04-26T00:38:36.607Z,2.35
2019-04-26T00:39:39.707Z,2.30
2019-04-26T00:40:44.299Z,2.27
2019-04-26T00:41:47.672Z,2.80
2019-04-26T00:42:52.338Z,2.45
2019-04-26T00:43:56.270Z,2.47
2019-04-26T00:45:00.254Z,2.60
2019-04-26T00:46:04.467Z,2.62
2019-04-26T00:47:08.481Z,2.70
2019-04-26T00:48:12.551Z,2.60
2019-04-26T00:49:17.205Z,2.35
2019-04-26T00:50:21.319Z,2.58
2019-04-26T00:51:25.056Z,2.58
2019-04-26T00:52:28.863Z,2.30
2019-04-26T00:53:32.788Z,2.72
2019-04-26T00:54:36.234Z,2.47
2019-04-26T00:55:39.295Z,2.60
2019-04-26T00:56:42.459Z,2.80
2019-04-26T00:57:46.539Z,2.50
2019-04-26T00:58:50.119Z,2.75
2019-04-26T00:59:53.565Z,2.50
2019-04-26T01:00:57.442Z,2.47
2019-04-26T01:02:07.106Z,2.72
2019-04-26T01:03:10.558Z,2.58
2019-04-26T01:04:15.604Z,2.75
2019-04-26T01:05:20.843Z,2.60
2019-04-26T01:06:26.227Z,2.77
2019-04-26T01:07:29.493Z,2.65
2019-04-26T01:08:33.427Z,2.50
2019-04-26T01:09:36.719Z,2.60
2019-04-26T01:10:40.019Z,2.92
2019-04-26T01:11:43.297Z,2.40
2019-04-26T01:12:46.869Z,2.70
2019-04-26T01:13:49.887Z,2.80
2019-04-26T01:14:53.420Z,2.50
2019-04-26T01:15:56.691Z,2.80
2019-04-26T01:17:00.290Z,2.67
2019-04-26T01:18:03.610Z,2.75
2019-04-26T01:19:08.623Z,2.70
2019-04-26T01:20:12.091Z,2.75
2019-04-26T01:21:18.431Z,2.60
2019-04-26T01:22:25.295Z,2.72
2019-04-26T01:23:29.740Z,2.72
2019-04-26T01:24:34.857Z,2.67
2019-04-26T01:25:40.123Z,3.17
2019-04-26T01:26:43.497Z,2.60
2019-04-26T01:27:47.077Z,3.08
2019-04-26T01:29:10.734Z,2.80
2019-04-26T01:30:14.018Z,2.65
2019-04-26T01:31:18.603Z,2.75
2019-04-26T01:32:24.034Z,3.00
2019-04-26T01:33:28.207Z,3.00
2019-04-26T01:34:31.638Z,3.05
2019-04-26T01:35:34.917Z,2.90
2019-04-26T01:36:39.379Z,3.10
2019-04-26T01:37:44.778Z,2.95
2019-04-26T01:38:49.890Z,3.22
2019-04-26T01:39:57.675Z,3.08
2019-04-26T01:41:04.611Z,3.00
2019-04-26T01:42:33.446Z,3.40
2019-04-26T01:43:55.717Z,2.90
2019-04-26T01:45:10.546Z,2.90
2019-04-26T01:46:28.989Z,3.40
2019-04-26T01:47:32.762Z,3.17
2019-04-26T01:48:43.642Z,2.95
2019-04-26T01:49:46.967Z,3.20
2019-04-26T01:50:50.514Z,3.58
2019-04-26T01:52:04.811Z,3.40
2019-04-26T01:53:08.649Z,3.37
2019-04-26T01:54:13.163Z,3.40
2019-04-26T01:55:17.288Z,3.00
2019-04-26T01:56:23.429Z,3.27
2019-04-26T01:57:29.336Z,3.20
2019-04-26T01:58:33.411Z,3.33
2019-04-26T01:59:39.370Z,2.92
2019-04-26T02:00:51.255Z,3.47
2019-04-26T02:02:13.834Z,3.20
2019-04-26T02:03:22.695Z,3.67
2019-04-26T02:04:29.904Z,3.20
2019-04-26T02:05:33.262Z,3.35
2019-04-26T02:06:37.097Z,3.30
2019-04-26T02:07:40.936Z,3.40
2019-04-26T02:08:44.812Z,4.42
2019-04-26T02:09:48.082Z,3.47
2019-04-26T02:10:51.734Z,3.42
2019-04-26T02:11:55.281Z,3.58
2019-04-26T02:12:58.662Z,3.42
2019-04-26T02:14:02.239Z,3.60
2019-04-26T02:15:05.422Z,3.62
2019-04-26T02:16:08.692Z,3.85
2019-04-26T02:17:12.596Z,3.40
2019-04-26T02:18:15.625Z,3.85
2019-04-26T02:19:19.867Z,3.80
2019-04-26T02:20:41.131Z,3.60
2019-04-26T02:22:08.198Z,3.55
2019-04-26T02:23:18.213Z,3.42
2019-04-26T02:24:28.016Z,3.65
2019-04-26T02:25:32.182Z,3.37
2019-04-26T02:26:39.843Z,3.62
2019-04-26T02:27:42.865Z,3.22
2019-04-26T02:28:46.447Z,3.42
2019-04-26T02:29:50.017Z,3.87
2019-04-26T02:30:54.039Z,3.27
2019-04-26T02:32:02.337Z,3.50
2019-04-26T02:33:05.958Z,3.70
2019-04-26T02:34:10.080Z,3.50
2019-04-26T02:35:13.149Z,3.77
2019-04-26T02:36:16.646Z,3.75
2019-04-26T02:37:19.985Z,3.77
2019-04-26T02:38:23.287Z,3.87
2019-04-26T02:39:30.229Z,3.52
2019-04-26T02:40:34.742Z,3.42
2019-04-26T02:41:38.223Z,3.75
2019-04-26T02:42:43.281Z,3.50
2019-04-26T02:43:47.763Z,4.03
2019-04-26T02:45:08.661Z,3.87
2019-04-26T02:46:19.784Z,3.62
2019-04-26T02:47:47.786Z,3.90
2019-04-26T02:49:07.558Z,3.20
2019-04-26T02:50:15.024Z,3.50
2019-04-26T02:51:19.718Z,3.65
2019-04-26T02:52:31.267Z,3.40
2019-04-26T02:53:38.818Z,4.08
2019-04-26T02:54:46.184Z,3.90
2019-04-26T02:56:04.887Z,3.80
2019-04-26T02:57:08.155Z,4.22
2019-04-26T02:58:12.976Z,4.25
2019-04-26T02:59:23.157Z,4.03
2019-04-26T03:00:26.267Z,4.10
2019-04-26T03:01:32.316Z,4.15
2019-04-26T03:02:37.272Z,4.08
2019-04-26T03:03:41.181Z,4.28
2019-04-26T03:04:46.105Z,4.40
2019-04-26T03:05:49.811Z,4.00
2019-04-26T03:07:03.154Z,4.62
2019-04-26T03:08:15.261Z,4.60
2019-04-26T03:09:19.187Z,4.50
2019-04-26T03:10:25.272Z,4.08
2019-04-26T03:11:31.466Z,4.67
2019-04-26T03:12:37.589Z,4.67
2019-04-26T03:13:51.512Z,4.45
2019-04-26T03:15:15.601Z,4.17
2019-04-26T03:16:44.219Z,4.78
2019-04-26T03:17:54.904Z,4.47
2019-04-26T03:19:14.699Z,4.75
2019-04-26T03:20:20.301Z,4.90
2019-04-26T03:21:32.678Z,4.72
2019-04-26T03:22:55.334Z,4.62
2019-04-26T03:24:03.560Z,4.80
2019-04-26T03:25:19.368Z,4.42
2019-04-26T03:27:00.025Z,4.08
2019-04-26T03:28:10.665Z,5.15
2019-04-26T03:29:48.471Z,4.40
2019-04-26T03:30:56.987Z,4.58
2019-04-26T03:32:16.186Z,4.90
2019-04-26T03:33:20.841Z,4.33
2019-04-26T03:34:34.443Z,4.80
2019-04-26T03:36:05.981Z,4.70
2019-04-26T03:37:46.383Z,4.55
2019-04-26T03:39:09.275Z,4.40
2019-04-26T03:40:28.559Z,4.37
2019-04-26T03:42:05.538Z,4.45
2019-04-26T03:43:15.445Z,4.50
2019-04-26T03:44:26.205Z,4.65
2019-04-26T03:45:37.130Z,5.00
2019-04-26T03:46:52.744Z,5.03
2019-04-26T03:48:13.880Z,5.05
2019-04-26T03:49:36.133Z,5.20
2019-04-26T03:50:42.961Z,3.65
2019-04-26T03:51:54.447Z,4.12
2019-04-26T03:53:22.537Z,3.62
2019-04-26T03:54:27.531Z,4.00
2019-04-26T03:55:56.262Z,3.62
2019-04-26T03:57:15.194Z,3.67
2019-04-26T03:58:21.873Z,3.72
2019-04-26T03:59:36.812Z,4.03
2019-04-26T04:00:50.612Z,4.20
2019-04-26T04:02:07.635Z,3.83
2019-04-26T04:03:43.497Z,4.10
2019-04-26T04:04:54.511Z,3.50
2019-04-26T04:05:59.778Z,4.12
2019-04-26T04:07:05.232Z,4.00
2019-04-26T04:08:10.320Z,3.65
2019-04-26T04:09:17.862Z,4.10
2019-04-26T04:10:21.218Z,3.67
2019-04-26T04:11:27.454Z,4.08
2019-04-26T04:12:36.226Z,4.25
2019-04-26T04:13:50.458Z,4.62
2019-04-26T04:15:09.387Z,4.50
2019-04-26T04:16:20.507Z,4.55
2019-04-26T04:17:50.196Z,4.60
2019-04-26T04:18:55.670Z,4.22
2019-04-26T04:20:23.839Z,5.15
2019-04-26T04:21:46.936Z,5.00
2019-04-26T04:22:54.932Z,4.90
2019-04-26T04:24:01.552Z,5.10
2019-04-26T04:25:07.242Z,5.25
2019-04-26T04:26:12.368Z,4.50
2019-04-26T04:27:34.078Z,4.90
2019-04-26T04:28:46.502Z,4.87
2019-04-26T04:29:55.183Z,4.80
2019-04-26T04:31:06.078Z,4.83
2019-04-26T04:32:14.192Z,4.83
2019-04-26T04:33:33.464Z,4.90
2019-04-26T04:34:41.505Z,5.15
2019-04-26T04:35:52.842Z,5.28
2019-04-26T04:36:58.119Z,4.17
2019-04-26T04:38:09.626Z,4.80
2019-04-26T04:39:13.503Z,4.72
2019-04-26T04:40:27.551Z,4.78
2019-04-26T04:41:45.145Z,5.30
2019-04-26T04:43:03.224Z,4.97
2019-04-26T04:44:11.075Z,4.87
2019-04-26T04:45:41.725Z,4.40
2019-04-26T04:47:24.491Z,4.50
2019-04-26T04:48:39.176Z,4.55
2019-04-26T04:49:51.000Z,5.08
2019-04-26T04:51:02.893Z,4.90
2019-04-26T04:52:18.962Z,4.65
2019-04-26T04:53:47.865Z,4.53
2019-04-26T04:55:05.065Z,4.85
2019-04-26T04:56:04.008Z,4.60
2019-04-26T04:57:41.956Z,5.10
2019-04-26T04:58:50.190Z,5.65
2019-04-26T05:00:02.152Z,5.25
2019-04-26T05:01:42.842Z,5.30
2019-04-26T05:02:58.913Z,5.12
2019-04-26T05:04:08.126Z,4.85
2019-04-26T05:05:25.850Z,4.60
2019-04-26T05:06:46.984Z,4.60
2019-04-26T05:08:06.155Z,5.10
2019-04-26T05:09:00.254Z,5.15
2019-04-26T05:10:12.675Z,4.85
2019-04-26T05:11:19.585Z,5.30
2019-04-26T05:12:32.804Z,4.92
2019-04-26T05:13:38.827Z,5.25
2019-04-26T05:15:00.575Z,5.40
2019-04-26T05:16:23.313Z,5.00
2019-04-26T05:17:46.072Z,5.33
2019-04-26T05:18:58.999Z,4.87
2019-04-26T05:20:15.312Z,4.90
2019-04-26T05:21:53.002Z,5.03
2019-04-26T05:23:21.626Z,4.87
2019-04-26T05:24:38.063Z,5.03
2019-04-26T05:26:17.048Z,5.40
2019-04-26T05:27:48.364Z,5.45
2019-04-26T05:28:58.891Z,5.10
2019-04-26T05:30:58.116Z,5.25
2019-04-26T05:32:12.870Z,4.75
2019-04-26T05:33:29.195Z,5.00
2019-04-26T05:34:41.082Z,4.90
2019-04-26T05:35:53.153Z,5.33
2019-04-26T05:37:02.972Z,5.20
2019-04-26T05:38:18.039Z,5.17
2019-04-26T05:39:19.979Z,5.20
2019-04-26T05:40:37.826Z,5.67
2019-04-26T05:42:21.537Z,5.30
2019-04-26T05:43:50.316Z,4.65
2019-04-26T05:45:14.831Z,4.55
2019-04-26T05:46:40.724Z,4.70
2019-04-26T05:48:09.318Z,5.15
2019-04-26T05:49:32.879Z,4.75
2019-04-26T05:51:04.244Z,5.33
2019-04-26T05:52:31.607Z,5.15
2019-04-26T05:54:34.230Z,5.53
2019-04-26T05:55:56.023Z,4.92
2019-04-26T05:57:10.341Z,5.33
2019-04-26T05:58:21.651Z,4.85
2019-04-26T05:59:29.525Z,5.12
2019-04-26T06:01:07.735Z,4.87
2019-04-26T06:02:51.295Z,4.97
2019-04-26T06:04:18.239Z,5.28
2019-04-26T06:05:50.861Z,5.30
2019-04-26T06:07:10.653Z,5.25
2019-04-26T06:08:31.477Z,5.22
2019-04-26T06:09:51.845Z,5.35
2019-04-26T06:11:11.603Z,5.25
2019-04-26T06:12:21.602Z,4.83
2019-04-26T06:14:12.503Z,4.62
2019-04-26T06:15:33.416Z,4.42
2019-04-26T06:17:15.093Z,4.97
2019-04-26T06:18:55.821Z,4.53
2019-04-26T06:20:22.314Z,4.53
2019-04-26T06:21:19.534Z,4.83
2019-04-26T06:22:35.222Z,4.62
2019-04-26T06:24:09.746Z,4.70
2019-04-26T06:25:27.676Z,4.53
2019-04-26T06:26:43.859Z,5.12
2019-04-26T06:27:54.846Z,5.17
2019-04-26T06:29:03.314Z,5.47
2019-04-26T06:30:11.999Z,5.67
2019-04-26T06:31:21.379Z,5.25
2019-04-26T06:32:30.696Z,5.87
2019-04-26T06:33:47.188Z,5.12
2019-04-26T06:34:57.185Z,5.30
2019-04-26T06:36:02.940Z,5.47
2019-04-26T06:37:35.274Z,5.53
2019-04-26T06:39:13.108Z,5.08
2019-04-26T06:40:17.093Z,5.37
2019-04-26T06:42:05.149Z,5.83
2019-04-26T06:43:22.591Z,4.15
2019-04-26T06:44:29.239Z,3.98
2019-04-26T06:46:07.539Z,3.37
2019-04-26T06:47:28.627Z,3.77
2019-04-26T06:48:41.221Z,3.20
2019-04-26T06:50:07.898Z,3.52
2019-04-26T06:51:24.165Z,3.77
2019-04-26T06:52:23.134Z,3.90
2019-04-26T06:53:47.414Z,3.37
2019-04-26T06:54:57.810Z,3.40
2019-04-26T06:56:10.489Z,3.50
2019-04-26T06:57:30.160Z,3.65
2019-04-26T06:58:37.834Z,3.47
2019-04-26T06:59:49.008Z,3.47
2019-04-26T07:01:09.280Z,3.47
2019-04-26T07:02:19.207Z,3.72
2019-04-26T07:03:33.946Z,4.22
2019-04-26T07:04:44.287Z,3.77
2019-04-26T07:05:50.338Z,3.45
2019-04-26T07:07:08.598Z,3.67
2019-04-26T07:08:22.122Z,3.30
2019-04-26T07:09:28.180Z,3.65
2019-04-26T07:10:35.726Z,3.50
2019-04-26T07:12:17.244Z,3.30
2019-04-26T07:13:38.095Z,3.47
2019-04-26T07:14:56.323Z,3.70
2019-04-26T07:16:23.150Z,3.30
2019-04-26T07:17:35.385Z,3.20
2019-04-26T07:18:56.885Z,3.33
2019-04-26T07:20:21.635Z,3.33
2019-04-26T07:21:36.425Z,3.22
2019-04-26T07:23:01.993Z,3.05
2019-04-26T07:24:28.777Z,3.40
2019-04-26T07:25:50.449Z,3.15
2019-04-26T07:27:06.641Z,3.33
2019-04-26T07:28:18.534Z,2.80
2019-04-26T07:29:40.903Z,3.00
2019-04-26T07:30:52.253Z,2.72
2019-04-26T07:31:58.374Z,3.10
2019-04-26T07:33:10.343Z,3.30
2019-04-26T07:34:41.335Z,3.08
2019-04-26T07:35:58.903Z,3.10
2019-04-26T07:37:21.535Z,3.25
2019-04-26T07:38:52.626Z,3.02
2019-04-26T07:40:20.959Z,2.90
2019-04-26T07:41:49.242Z,2.90
2019-04-26T07:43:14.878Z,2.85
2019-04-26T07:44:51.503Z,2.98
2019-04-26T07:46:13.568Z,3.00
2019-04-26T07:47:21.157Z,3.05
2019-04-26T07:48:36.979Z,2.70
2019-04-26T07:50:03.542Z,2.98
2019-04-26T07:51:19.496Z,3.08
2019-04-26T07:52:38.874Z,2.70
2019-04-26T07:53:54.341Z,2.80
2019-04-26T07:55:25.702Z,3.12
2019-04-26T07:56:33.055Z,3.08
2019-04-26T07:57:54.603Z,2.90
2019-04-26T07:59:29.564Z,2.90
2019-04-26T08:00:44.589Z,3.30
2019-04-26T08:02:07.476Z,2.70
2019-04-26T08:03:24.909Z,3.12
2019-04-26T08:04:32.518Z,3.08
2019-04-26T08:05:50.771Z,3.15
2019-04-26T08:06:55.751Z,2.98
2019-04-26T08:08:00.434Z,3.20
2019-04-26T08:09:07.972Z,2.75
2019-04-26T08:10:15.870Z,2.98
2019-04-26T08:11:20.960Z,2.60
2019-04-26T08:12:25.687Z,3.05
2019-04-26T08:13:30.507Z,3.00
2019-04-26T08:14:39.114Z,2.98
2019-04-26T08:16:01.420Z,2.80
2019-04-26T08:17:26.862Z,3.10
2019-04-26T08:18:41.130Z,2.65
2019-04-26T08:19:48.707Z,3.10
2019-04-26T08:21:18.536Z,2.70
2019-04-26T08:22:28.391Z,3.08
2019-04-26T08:23:41.979Z,2.55
2019-04-26T08:24:38.396Z,2.65
2019-04-26T08:25:43.455Z,2.98
2019-04-26T08:26:48.737Z,2.77
2019-04-26T08:27:53.223Z,2.70
2019-04-26T08:29:00.694Z,2.90
2019-04-26T08:30:10.456Z,2.60
2019-04-26T08:31:15.615Z,3.15
2019-04-26T08:32:21.184Z,2.67
2019-04-26T08:33:28.343Z,2.42
2019-04-26T08:34:33.922Z,3.00
2019-04-26T08:35:38.923Z,3.20
2019-04-26T08:36:50.474Z,3.05
2019-04-26T08:37:56.092Z,2.70
2019-04-26T08:39:00.666Z,2.98
2019-04-26T08:40:04.267Z,3.17
2019-04-26T08:41:08.590Z,2.72
2019-04-26T08:42:20.791Z,2.85
2019-04-26T08:43:37.352Z,3.47
2019-04-26T08:44:51.678Z,3.22
2019-04-26T08:46:20.213Z,2.83
2019-04-26T08:47:41.376Z,3.20
2019-04-26T08:48:58.121Z,3.20
2019-04-26T08:50:22.936Z,3.00
2019-04-26T08:51:26.311Z,3.10
2019-04-26T08:52:31.314Z,3.00
2019-04-26T08:53:36.079Z,2.90
2019-04-26T08:54:45.570Z,3.33
2019-04-26T08:55:50.324Z,3.22
2019-04-26T08:57:06.863Z,3.50
2019-04-26T08:58:11.626Z,3.37
2019-04-26T08:59:18.442Z,3.45
2019-04-26T09:00:41.142Z,3.10
2019-04-26T09:01:51.819Z,3.55
2019-04-26T09:03:18.724Z,3.62
2019-04-26T09:04:29.485Z,3.65
2019-04-26T09:06:05.574Z,3.37
2019-04-26T09:07:16.323Z,4.05
2019-04-26T09:08:20.854Z,4.47
2019-04-26T09:09:26.140Z,3.42
2019-04-26T09:10:30.883Z,3.60
2019-04-26T09:11:35.117Z,3.87
2019-04-26T09:12:39.799Z,3.50
2019-04-26T09:13:44.689Z,3.22
2019-04-26T09:14:49.972Z,3.20
2019-04-26T09:16:04.440Z,3.20
2019-04-26T09:17:08.043Z,3.45
2019-04-26T09:18:12.266Z,3.37
2019-04-26T09:19:16.035Z,3.40
2019-04-26T09:20:28.476Z,3.55
2019-04-26T09:21:37.515Z,3.52
2019-04-26T09:23:03.826Z,3.52
2019-04-26T09:24:16.541Z,3.67
2019-04-26T09:25:34.123Z,3.55
2019-04-26T09:26:38.531Z,3.92
2019-04-26T09:27:47.446Z,3.92
2019-04-26T09:29:18.675Z,4.15
2019-04-26T09:30:38.539Z,3.45
2019-04-26T09:31:44.092Z,3.12
2019-04-26T09:32:58.305Z,3.90
2019-04-26T09:34:06.301Z,3.55
2019-04-26T09:35:11.214Z,3.87
2019-04-26T09:36:12.775Z,3.50
2019-04-26T09:37:16.619Z,3.80
2019-04-26T09:38:19.907Z,3.47
2019-04-26T09:39:23.531Z,3.83
2019-04-26T09:40:27.107Z,3.20
2019-04-26T09:41:30.856Z,3.25
2019-04-26T09:42:48.673Z,3.50
2019-04-26T09:43:58.946Z,3.37
2019-04-26T09:45:24.308Z,3.80
2019-04-26T09:46:48.461Z,3.77
2019-04-26T09:47:54.522Z,3.80
2019-04-26T09:49:08.302Z,3.30
2019-04-26T09:50:17.954Z,3.65
2019-04-26T09:51:21.303Z,3.00
2019-04-26T09:52:27.169Z,3.50
2019-04-26T09:53:31.108Z,3.22
2019-04-26T09:54:34.383Z,3.42
2019-04-26T09:55:38.008Z,3.25
2019-04-26T09:56:41.555Z,3.80
2019-04-26T09:57:45.134Z,3.50
2019-04-26T09:58:49.046Z,3.20
2019-04-26T09:59:51.990Z,3.70
2019-04-26T10:00:55.094Z,3.15
2019-04-26T10:01:59.356Z,3.40
2019-04-26T10:03:05.519Z,3.40
2019-04-26T10:04:09.785Z,3.30
2019-04-26T10:05:17.610Z,3.42
2019-04-26T10:06:19.799Z,3.30
2019-04-26T10:07:23.413Z,3.30
2019-04-26T10:08:26.819Z,3.30
2019-04-26T10:09:30.949Z,3.40
2019-04-26T10:10:35.299Z,3.30
2019-04-26T10:11:44.794Z,3.80
2019-04-26T10:12:55.867Z,3.70
2019-04-26T10:14:04.260Z,3.22
2019-04-26T10:15:22.558Z,3.80
2019-04-26T10:16:50.165Z,3.75
2019-04-26T10:17:54.020Z,3.17
2019-04-26T10:19:00.402Z,2.62
2019-04-26T10:20:03.759Z,3.40
2019-04-26T10:21:07.071Z,3.27
2019-04-26T10:22:10.340Z,3.35
2019-04-26T10:23:13.635Z,3.35
2019-04-26T10:24:17.219Z,3.25
2019-04-26T10:25:20.474Z,3.00
2019-04-26T10:26:28.147Z,3.60
2019-04-26T10:27:29.171Z,3.05
2019-04-26T10:28:32.216Z,3.30
2019-04-26T10:29:35.770Z,2.95
2019-04-26T10:30:42.374Z,3.55
2019-04-26T10:31:47.616Z,3.72
2019-04-26T10:32:49.295Z,3.62
2019-04-26T10:33:52.907Z,3.40
2019-04-26T10:34:56.551Z,3.77
2019-04-26T10:36:00.159Z,3.25
2019-04-26T10:37:06.136Z,3.52
2019-04-26T10:38:08.410Z,3.50
2019-04-26T10:39:12.797Z,3.72
2019-04-26T10:40:15.812Z,3.45
2019-04-26T10:41:19.173Z,3.47
2019-04-26T10:42:22.379Z,4.12
2019-04-26T10:43:25.660Z,3.20
2019-04-26T10:44:29.228Z,3.60
2019-04-26T10:45:33.086Z,3.25
2019-04-26T10:46:36.683Z,3.77
2019-04-26T10:47:40.022Z,3.67
2019-04-26T10:48:45.610Z,3.40
2019-04-26T10:49:48.447Z,3.22
2019-04-26T10:50:52.021Z,3.40
2019-04-26T10:51:55.658Z,3.92
2019-04-26T10:53:12.796Z,3.55
2019-04-26T10:54:19.086Z,3.95
2019-04-26T10:55:42.177Z,3.17
2019-04-26T10:56:51.430Z,3.72
2019-04-26T10:57:57.055Z,4.17
2019-04-26T10:59:09.833Z,4.00
2019-04-26T11:00:19.381Z,3.67
2019-04-26T11:01:22.661Z,3.77
2019-04-26T11:02:26.230Z,3.55
2019-04-26T11:03:29.788Z,3.65
2019-04-26T11:04:32.859Z,3.60
2019-04-26T11:05:36.137Z,3.30
2019-04-26T11:06:39.747Z,3.17
2019-04-26T11:07:43.373Z,3.98
2019-04-26T11:08:46.906Z,3.80
2019-04-26T11:09:50.567Z,3.62
2019-04-26T11:10:53.839Z,3.30
2019-04-26T11:11:57.401Z,3.37
2019-04-26T11:13:00.419Z,3.37
2019-04-26T11:14:04.073Z,3.45
2019-04-26T11:15:08.064Z,3.70
2019-04-26T11:16:11.127Z,3.58
2019-04-26T11:17:16.086Z,3.08
2019-04-26T11:18:27.085Z,2.85
2019-04-26T11:19:25.280Z,3.95
2019-04-26T11:20:28.556Z,3.80
2019-04-26T11:21:32.134Z,3.75
2019-04-26T11:22:37.588Z,3.70
2019-04-26T11:23:44.934Z,3.60
2019-04-26T11:24:45.950Z,3.30
2019-04-26T11:25:49.214Z,3.17
2019-04-26T11:26:52.787Z,3.67
2019-04-26T11:27:56.051Z,3.30
2019-04-26T11:28:59.360Z,3.50
2019-04-26T11:30:11.924Z,3.30
2019-04-26T11:31:07.947Z,2.80
2019-04-26T11:32:11.446Z,3.00
2019-04-26T11:33:14.815Z,3.25
2019-04-26T11:34:19.283Z,3.05
2019-04-26T11:35:23.146Z,3.22
2019-04-26T11:36:26.417Z,3.22
2019-04-26T11:37:29.962Z,2.98
2019-04-26T11:38:33.124Z,3.00
2019-04-26T11:39:39.972Z,2.52
2019-04-26T11:40:44.411Z,2.70
2019-04-26T11:41:47.070Z,2.50
2019-04-26T11:42:50.351Z,2.90
2019-04-26T11:43:54.572Z,2.60
2019-04-26T11:45:05.991Z,2.52
2019-04-26T11:46:04.388Z,2.92
2019-04-26T11:47:08.247Z,2.80
2019-04-26T11:48:11.307Z,2.75
2019-04-26T11:49:16.046Z,2.77
2019-04-26T11:50:19.993Z,2.72
2019-04-26T11:51:27.226Z,2.35
2019-04-26T11:52:32.223Z,2.65
2019-04-26T11:53:34.845Z,2.37
2019-04-26T11:54:39.188Z,2.87
2019-04-26T11:55:42.270Z,2.77
2019-04-26T11:56:45.514Z,2.90
2019-04-26T11:57:50.690Z,2.80
2019-04-26T11:58:56.774Z,2.50
2019-04-26T12:00:01.456Z,2.42
2019-04-26T12:01:05.990Z,2.75
2019-04-26T12:02:12.195Z,2.90
2019-04-26T12:03:14.799Z,2.85
2019-04-26T12:04:25.622Z,3.02
2019-04-26T12:05:42.434Z,3.00
2019-04-26T12:06:49.556Z,2.47
2019-04-26T12:07:56.859Z,2.90
2019-04-26T12:09:08.106Z,2.87
2019-04-26T12:10:11.823Z,2.60
2019-04-26T12:11:18.647Z,3.00
2019-04-26T12:12:20.908Z,3.10
2019-04-26T12:13:25.107Z,2.67
2019-04-26T12:14:29.549Z,3.52
2019-04-26T12:15:33.759Z,3.40
2019-04-26T12:16:47.040Z,2.98
2019-04-26T12:17:41.800Z,2.70
2019-04-26T12:18:45.718Z,3.72
2019-04-26T12:19:52.241Z,3.42
2019-04-26T12:20:57.168Z,3.25
2019-04-26T12:21:59.618Z,2.92
2019-04-26T12:23:02.902Z,2.90
2019-04-26T12:24:06.491Z,2.65
2019-04-26T12:25:09.923Z,2.60
2019-04-26T12:26:13.211Z,2.47
2019-04-26T12:27:16.823Z,2.90
2019-04-26T12:28:20.883Z,3.15
2019-04-26T12:29:24.460Z,2.55
2019-04-26T12:30:27.498Z,2.52
2019-04-26T12:31:30.824Z,2.52
2019-04-26T12:32:34.094Z,2.52
2019-04-26T12:33:39.164Z,2.42
2019-04-26T12:34:42.975Z,2.58
2019-04-26T12:35:46.272Z,2.70
2019-04-26T12:36:49.546Z,2.72
2019-04-26T12:37:54.646Z,2.92
2019-04-26T12:38:58.288Z,2.70
2019-04-26T12:40:02.758Z,2.30
2019-04-26T12:41:06.044Z,2.52
2019-04-26T12:42:12.369Z,2.50
2019-04-26T12:43:15.842Z,2.58
2019-04-26T12:44:19.235Z,2.90
2019-04-26T12:45:40.377Z,2.98
2019-04-26T12:47:11.807Z,2.85
2019-04-26T12:48:16.854Z,3.00
2019-04-26T12:49:24.136Z,3.20
2019-04-26T12:50:29.540Z,2.80
2019-04-26T12:51:31.087Z,2.83
2019-04-26T12:52:37.313Z,2.77
2019-04-26T12:53:40.772Z,3.12
2019-04-26T12:54:44.558Z,2.40
2019-04-26T12:55:49.245Z,2.72
2019-04-26T12:56:52.810Z,2.70
2019-04-26T12:57:56.084Z,2.65
2019-04-26T12:58:59.093Z,2.70
2019-04-26T13:00:03.718Z,2.90
2019-04-26T13:01:12.200Z,3.15
2019-04-26T13:02:16.585Z,2.72
2019-04-26T13:03:20.454Z,3.12
2019-04-26T13:04:35.582Z,2.77
2019-04-26T13:05:29.039Z,3.47
2019-04-26T13:06:33.524Z,3.55
2019-04-26T13:07:39.046Z,3.72
2019-04-26T13:08:42.779Z,3.47
2019-04-26T13:10:09.479Z,3.92
2019-04-26T13:11:29.127Z,3.70
2019-04-26T13:12:42.991Z,3.62
2019-04-26T13:14:20.883Z,3.37
2019-04-26T13:16:11.542Z,2.95
2019-04-26T13:17:17.783Z,2.87
2019-04-26T13:18:21.064Z,3.02
2019-04-26T13:19:24.325Z,3.27
2019-04-26T13:20:28.680Z,2.98
2019-04-26T13:21:37.304Z,3.08
2019-04-26T13:22:45.837Z,3.27
2019-04-26T13:23:43.673Z,3.62
2019-04-26T13:24:47.523Z,3.85
2019-04-26T13:25:50.851Z,4.00
2019-04-26T13:26:54.135Z,3.40
2019-04-26T13:27:57.976Z,3.22
2019-04-26T13:29:01.276Z,2.90
2019-04-26T13:30:06.893Z,3.50
2019-04-26T13:31:10.825Z,3.50
2019-04-26T13:32:14.135Z,3.20
2019-04-26T13:33:17.434Z,2.95
2019-04-26T13:34:20.792Z,2.90
2019-04-26T13:35:24.064Z,3.50
2019-04-26T13:36:29.175Z,2.92
2019-04-26T13:37:32.214Z,2.72
2019-04-26T13:38:39.286Z,2.92
2019-04-26T13:39:41.353Z,3.10
2019-04-26T13:40:44.915Z,3.30
2019-04-26T13:41:48.486Z,2.90
2019-04-26T13:42:52.508Z,2.87
2019-04-26T13:43:57.191Z,3.08
2019-04-26T13:45:13.366Z,3.10
2019-04-26T13:46:33.242Z,2.60
2019-04-26T13:47:51.151Z,2.55
2019-04-26T13:49:09.336Z,2.87
2019-04-26T13:50:16.159Z,2.80
2019-04-26T13:51:20.074Z,2.80
2019-04-26T13:52:23.655Z,2.25
2019-04-26T13:53:27.001Z,3.27
2019-04-26T13:54:30.346Z,3.10
2019-04-26T13:55:33.914Z,2.37
2019-04-26T13:56:37.635Z,2.90
2019-04-26T13:57:44.506Z,2.42
2019-04-26T13:58:46.105Z,2.55
2019-04-26T13:59:49.129Z,2.27
2019-04-26T14:00:52.768Z,2.70
2019-04-26T14:01:56.095Z,2.58
2019-04-26T14:02:59.647Z,2.83
2019-04-26T14:04:06.734Z,2.60
2019-04-26T14:05:11.121Z,2.65
2019-04-26T14:06:12.932Z,2.52
2019-04-26T14:07:19.932Z,2.65
2019-04-26T14:08:21.190Z,2.10
2019-04-26T14:09:24.501Z,2.25
2019-04-26T14:10:27.546Z,2.20
2019-04-26T14:11:31.080Z,2.30
2019-04-26T14:12:34.101Z,2.05
2019-04-26T14:13:37.391Z,2.45
2019-04-26T14:14:41.295Z,2.70
2019-04-26T14:15:48.678Z,2.60
2019-04-26T14:16:52.092Z,2.22
2019-04-26T14:17:55.487Z,2.45
2019-04-26T14:18:59.038Z,2.60
2019-04-26T14:20:02.345Z,2.35
2019-04-26T14:21:05.423Z,2.47
2019-04-26T14:22:08.914Z,2.42
2019-04-26T14:23:21.518Z,2.52
2019-04-26T14:24:38.915Z,2.47
2019-04-26T14:25:55.554Z,2.10
2019-04-26T14:27:01.780Z,2.10
2019-04-26T14:28:05.045Z,2.40
2019-04-26T14:29:08.082Z,2.30
2019-04-26T14:30:11.397Z,1.95
2019-04-26T14:31:16.346Z,2.42
2019-04-26T14:32:23.033Z,2.40
2019-04-26T14:33:27.064Z,2.30
2019-04-26T14:34:40.422Z,2.20
2019-04-26T14:35:46.222Z,2.58
2019-04-26T14:36:50.292Z,2.42
2019-04-26T14:37:53.558Z,2.62
2019-04-26T14:39:05.585Z,2.35
2019-04-26T14:40:16.886Z,2.27
2019-04-26T14:41:07.805Z,2.65
2019-04-26T14:42:11.544Z,2.42
2019-04-26T14:43:18.359Z,2.40
2019-04-26T14:44:20.104Z,2.67
2019-04-26T14:45:24.160Z,2.33
2019-04-26T14:46:27.696Z,2.83
2019-04-26T14:47:31.977Z,2.30
2019-04-26T14:48:36.097Z,2.25
2019-04-26T14:49:42.925Z,2.35
2019-04-26T14:50:45.510Z,2.20
2019-04-26T14:51:51.322Z,2.47
2019-04-26T14:52:54.372Z,2.10
2019-04-26T14:53:57.641Z,2.40
2019-04-26T14:55:01.188Z,2.83
2019-04-26T14:56:04.808Z,2.90
2019-04-26T14:57:17.016Z,2.77
2019-04-26T14:58:13.399Z,2.70
2019-04-26T14:59:19.542Z,2.72
2019-04-26T15:00:27.708Z,2.92
2019-04-26T15:01:42.463Z,2.05
2019-04-26T15:02:59.138Z,2.77
2019-04-26T15:04:20.406Z,2.50
2019-04-26T15:05:46.290Z,2.35
2019-04-26T15:06:51.882Z,2.70
2019-04-26T15:07:53.921Z,2.40
2019-04-26T15:08:57.103Z,2.50
2019-04-26T15:10:00.394Z,2.50
2019-04-26T15:11:04.492Z,2.55
2019-04-26T15:12:12.501Z,2.83
2019-04-26T15:13:19.908Z,2.85
2019-04-26T15:14:20.623Z,2.27
2019-04-26T15:15:27.015Z,2.42
2019-04-26T15:16:28.587Z,2.50
2019-04-26T15:17:32.281Z,3.00
2019-04-26T15:18:37.162Z,3.35
2019-04-26T15:19:45.922Z,3.20
2019-04-26T15:20:45.942Z,2.80
2019-04-26T15:21:49.223Z,2.83
2019-04-26T15:22:52.922Z,3.05
2019-04-26T15:23:59.433Z,2.75
2019-04-26T15:25:03.384Z,2.77
2019-04-26T15:26:06.793Z,2.80
2019-04-26T15:27:10.067Z,2.58
2019-04-26T15:28:14.549Z,2.70
2019-04-26T15:29:21.237Z,2.58
2019-04-26T15:30:23.905Z,2.80
2019-04-26T15:31:27.597Z,2.58
2019-04-26T15:32:32.875Z,2.40